sensor_id;sensor_type;location;lat;lon;timestamp;P1;durP1;ratioP1;P2;durP2;ratioP2
18013;SDS011;9132;47.946;10.394;2023-04-25T00:01:32;4.33;;;2.30;;
18013;SDS011;9132;47.946;10.394;2023-04-25T00:04:01;3.47;;;2.83;;
18013;SDS011;9132;47.946;10.394;2023-04-25T00:06:28;4.93;;;2.33;;
18013;SDS011;9132;47.946;10.394;2023-04-25T00:08:56;4.17;;;2.60;;
18013;SDS011;9132;47.946;10.394;2023-04-25T00:11:23;2.63;;;2.23;;
18013;SDS011;9132;47.946;10.394;2023-04-25T00:13:49;4.33;;;2.30;;
18013;SDS011;9132;47.946;10.394;2023-04-25T00:16:16;3.70;;;2.10;;
18013;SDS011;9132;47.946;10.394;2023-04-25T00:18:43;3.80;;;2.60;;
18013;SDS011;9132;47.946;10.394;2023-04-25T00:21:11;4.87;;;2.27;;
18013;SDS011;9132;47.946;10.394;2023-04-25T00:23:38;3.97;;;2.77;;
18013;SDS011;9132;47.946;10.394;2023-04-25T00:26:05;3.07;;;2.50;;
18013;SDS011;9132;47.946;10.394;2023-04-25T00:28:31;5.43;;;2.50;;
18013;SDS011;9132;47.946;10.394;2023-04-25T00:30:58;5.63;;;2.40;;
18013;SDS011;9132;47.946;10.394;2023-04-25T00:33:24;4.37;;;2.40;;
18013;SDS011;9132;47.946;10.394;2023-04-25T00:35:50;3.40;;;2.60;;
18013;SDS011;9132;47.946;10.394;2023-04-25T00:38:17;3.33;;;2.40;;
18013;SDS011;9132;47.946;10.394;2023-04-25T00:40:44;3.33;;;2.33;;
18013;SDS011;9132;47.946;10.394;2023-04-25T00:43:11;6.17;;;2.87;;
18013;SDS011;9132;47.946;10.394;2023-04-25T00:45:38;3.93;;;2.30;;
18013;SDS011;9132;47.946;10.394;2023-04-25T00:48:05;5.87;;;2.53;;
18013;SDS011;9132;47.946;10.394;2023-04-25T00:50:32;4.03;;;2.40;;
18013;SDS011;9132;47.946;10.394;2023-04-25T00:52:59;5.40;;;2.40;;
18013;SDS011;9132;47.946;10.394;2023-04-25T00:55:25;5.73;;;2.60;;
18013;SDS011;9132;47.946;10.394;2023-04-25T00:57:53;3.67;;;2.70;;
18013;SDS011;9132;47.946;10.394;2023-04-25T01:00:19;4.23;;;2.43;;
18013;SDS011;9132;47.946;10.394;2023-04-25T01:02:46;4.20;;;2.40;;
18013;SDS011;9132;47.946;10.394;2023-04-25T01:05:13;6.00;;;2.67;;
18013;SDS011;9132;47.946;10.394;2023-04-25T01:07:39;5.07;;;2.40;;
18013;SDS011;9132;47.946;10.394;2023-04-25T01:10:06;3.30;;;2.63;;
18013;SDS011;9132;47.946;10.394;2023-04-25T01:12:32;3.90;;;2.37;;
18013;SDS011;9132;47.946;10.394;2023-04-25T01:15:00;4.13;;;2.40;;
18013;SDS011;9132;47.946;10.394;2023-04-25T01:17:26;4.57;;;2.57;;
18013;SDS011;9132;47.946;10.394;2023-04-25T01:19:54;2.97;;;2.67;;
18013;SDS011;9132;47.946;10.394;2023-04-25T01:22:21;3.50;;;2.30;;
18013;SDS011;9132;47.946;10.394;2023-04-25T01:24:48;3.63;;;2.83;;
18013;SDS011;9132;47.946;10.394;2023-04-25T01:27:14;5.77;;;2.70;;
18013;SDS011;9132;47.946;10.394;2023-04-25T01:29:41;3.87;;;2.40;;
18013;SDS011;9132;47.946;10.394;2023-04-25T01:32:07;5.03;;;2.63;;
18013;SDS011;9132;47.946;10.394;2023-04-25T01:34:34;4.00;;;2.57;;
18013;SDS011;9132;47.946;10.394;2023-04-25T01:37:00;3.93;;;2.43;;
18013;SDS011;9132;47.946;10.394;2023-04-25T01:39:28;3.87;;;2.67;;
18013;SDS011;9132;47.946;10.394;2023-04-25T01:41:54;4.37;;;2.43;;
18013;SDS011;9132;47.946;10.394;2023-04-25T01:44:21;8.67;;;3.10;;
18013;SDS011;9132;47.946;10.394;2023-04-25T01:46:47;3.33;;;2.50;;
18013;SDS011;9132;47.946;10.394;2023-04-25T01:49:14;5.77;;;3.10;;
18013;SDS011;9132;47.946;10.394;2023-04-25T01:51:40;6.30;;;3.03;;
18013;SDS011;9132;47.946;10.394;2023-04-25T01:54:06;5.10;;;3.00;;
18013;SDS011;9132;47.946;10.394;2023-04-25T01:56:36;6.27;;;3.40;;
18013;SDS011;9132;47.946;10.394;2023-04-25T01:59:02;3.67;;;3.00;;
18013;SDS011;9132;47.946;10.394;2023-04-25T02:01:29;3.00;;;2.67;;
18013;SDS011;9132;47.946;10.394;2023-04-25T02:03:55;3.37;;;2.20;;
18013;SDS011;9132;47.946;10.394;2023-04-25T02:06:21;2.60;;;2.30;;
18013;SDS011;9132;47.946;10.394;2023-04-25T02:08:48;3.47;;;2.20;;
18013;SDS011;9132;47.946;10.394;2023-04-25T02:11:14;2.63;;;2.30;;
18013;SDS011;9132;47.946;10.394;2023-04-25T02:13:42;2.50;;;2.30;;
18013;SDS011;9132;47.946;10.394;2023-04-25T02:16:08;3.03;;;2.40;;
18013;SDS011;9132;47.946;10.394;2023-04-25T02:18:34;3.87;;;2.73;;
18013;SDS011;9132;47.946;10.394;2023-04-25T02:21:02;4.17;;;2.77;;
18013;SDS011;9132;47.946;10.394;2023-04-25T02:23:28;3.03;;;2.63;;
18013;SDS011;9132;47.946;10.394;2023-04-25T02:25:55;3.17;;;2.63;;
18013;SDS011;9132;47.946;10.394;2023-04-25T02:28:23;2.87;;;2.40;;
18013;SDS011;9132;47.946;10.394;2023-04-25T02:30:50;3.97;;;2.57;;
18013;SDS011;9132;47.946;10.394;2023-04-25T02:33:17;2.97;;;2.47;;
18013;SDS011;9132;47.946;10.394;2023-04-25T02:35:43;3.93;;;2.90;;
18013;SDS011;9132;47.946;10.394;2023-04-25T02:38:09;4.60;;;3.07;;
18013;SDS011;9132;47.946;10.394;2023-04-25T02:40:36;5.20;;;3.33;;
18013;SDS011;9132;47.946;10.394;2023-04-25T02:43:02;5.73;;;3.73;;
18013;SDS011;9132;47.946;10.394;2023-04-25T02:45:28;6.40;;;3.70;;
18013;SDS011;9132;47.946;10.394;2023-04-25T02:47:56;6.00;;;3.73;;
18013;SDS011;9132;47.946;10.394;2023-04-25T02:50:22;10.47;;;4.00;;
18013;SDS011;9132;47.946;10.394;2023-04-25T02:52:49;5.37;;;3.77;;
18013;SDS011;9132;47.946;10.394;2023-04-25T02:55:15;6.33;;;4.17;;
18013;SDS011;9132;47.946;10.394;2023-04-25T02:57:41;5.23;;;3.80;;
18013;SDS011;9132;47.946;10.394;2023-04-25T03:00:08;6.60;;;3.70;;
18013;SDS011;9132;47.946;10.394;2023-04-25T03:02:36;3.90;;;3.50;;
18013;SDS011;9132;47.946;10.394;2023-04-25T03:05:04;6.90;;;3.40;;
18013;SDS011;9132;47.946;10.394;2023-04-25T03:07:30;7.30;;;3.77;;
18013;SDS011;9132;47.946;10.394;2023-04-25T03:09:57;4.87;;;4.10;;
18013;SDS011;9132;47.946;10.394;2023-04-25T03:12:23;5.17;;;3.67;;
18013;SDS011;9132;47.946;10.394;2023-04-25T03:14:49;6.37;;;3.70;;
18013;SDS011;9132;47.946;10.394;2023-04-25T03:17:16;8.23;;;3.90;;
18013;SDS011;9132;47.946;10.394;2023-04-25T03:19:42;5.83;;;4.07;;
18013;SDS011;9132;47.946;10.394;2023-04-25T03:22:10;5.13;;;3.83;;
18013;SDS011;9132;47.946;10.394;2023-04-25T03:24:36;4.87;;;3.90;;
18013;SDS011;9132;47.946;10.394;2023-04-25T03:27:02;4.87;;;3.43;;
18013;SDS011;9132;47.946;10.394;2023-04-25T03:29:29;7.57;;;3.83;;
18013;SDS011;9132;47.946;10.394;2023-04-25T03:31:55;3.73;;;3.30;;
18013;SDS011;9132;47.946;10.394;2023-04-25T03:34:21;5.10;;;3.50;;
18013;SDS011;9132;47.946;10.394;2023-04-25T03:36:49;8.50;;;3.87;;
18013;SDS011;9132;47.946;10.394;2023-04-25T03:39:16;6.07;;;3.90;;
18013;SDS011;9132;47.946;10.394;2023-04-25T03:41:43;4.33;;;3.67;;
18013;SDS011;9132;47.946;10.394;2023-04-25T03:44:09;5.07;;;3.20;;
18013;SDS011;9132;47.946;10.394;2023-04-25T03:46:35;3.83;;;3.37;;
18013;SDS011;9132;47.946;10.394;2023-04-25T03:49:01;3.87;;;3.40;;
18013;SDS011;9132;47.946;10.394;2023-04-25T03:51:28;5.80;;;3.80;;
18013;SDS011;9132;47.946;10.394;2023-04-25T03:53:54;5.97;;;3.80;;
18013;SDS011;9132;47.946;10.394;2023-04-25T03:56:22;5.23;;;3.33;;
18013;SDS011;9132;47.946;10.394;2023-04-25T03:58:48;4.50;;;3.67;;
18013;SDS011;9132;47.946;10.394;2023-04-25T04:01:15;7.73;;;3.23;;
18013;SDS011;9132;47.946;10.394;2023-04-25T04:03:41;4.00;;;3.07;;
18013;SDS011;9132;47.946;10.394;2023-04-25T04:06:07;3.87;;;3.10;;
18013;SDS011;9132;47.946;10.394;2023-04-25T04:08:34;4.40;;;3.10;;
18013;SDS011;9132;47.946;10.394;2023-04-25T04:11:00;6.37;;;3.40;;
18013;SDS011;9132;47.946;10.394;2023-04-25T04:13:28;3.90;;;2.80;;
18013;SDS011;9132;47.946;10.394;2023-04-25T04:15:55;5.83;;;3.57;;
18013;SDS011;9132;47.946;10.394;2023-04-25T04:18:22;3.50;;;2.50;;
18013;SDS011;9132;47.946;10.394;2023-04-25T04:20:48;3.77;;;2.90;;
18013;SDS011;9132;47.946;10.394;2023-04-25T04:23:15;3.97;;;3.00;;
18013;SDS011;9132;47.946;10.394;2023-04-25T04:25:41;6.37;;;2.60;;
18013;SDS011;9132;47.946;10.394;2023-04-25T04:28:08;5.70;;;2.93;;
18013;SDS011;9132;47.946;10.394;2023-04-25T04:30:37;4.73;;;3.10;;
18013;SDS011;9132;47.946;10.394;2023-04-25T04:33:04;3.27;;;2.93;;
18013;SDS011;9132;47.946;10.394;2023-04-25T04:35:30;6.10;;;3.40;;
18013;SDS011;9132;47.946;10.394;2023-04-25T04:37:57;3.60;;;2.63;;
18013;SDS011;9132;47.946;10.394;2023-04-25T04:40:23;4.97;;;3.03;;
18013;SDS011;9132;47.946;10.394;2023-04-25T04:42:50;3.73;;;3.03;;
18013;SDS011;9132;47.946;10.394;2023-04-25T04:45:18;4.85;;;3.10;;
18013;SDS011;9132;47.946;10.394;2023-04-25T04:47:46;4.03;;;3.13;;
18013;SDS011;9132;47.946;10.394;2023-04-25T04:50:13;5.20;;;3.40;;
18013;SDS011;9132;47.946;10.394;2023-04-25T04:52:40;4.83;;;3.13;;
18013;SDS011;9132;47.946;10.394;2023-04-25T04:55:06;5.50;;;3.07;;
18013;SDS011;9132;47.946;10.394;2023-04-25T04:57:33;4.87;;;3.40;;
18013;SDS011;9132;47.946;10.394;2023-04-25T04:59:59;4.73;;;3.47;;
18013;SDS011;9132;47.946;10.394;2023-04-25T05:02:26;4.63;;;3.43;;
18013;SDS011;9132;47.946;10.394;2023-04-25T05:04:55;6.40;;;3.50;;
18013;SDS011;9132;47.946;10.394;2023-04-25T05:07:22;7.13;;;3.40;;
18013;SDS011;9132;47.946;10.394;2023-04-25T05:09:48;5.00;;;3.40;;
18013;SDS011;9132;47.946;10.394;2023-04-25T05:12:14;4.37;;;3.40;;
18013;SDS011;9132;47.946;10.394;2023-04-25T05:14:40;4.00;;;3.13;;
18013;SDS011;9132;47.946;10.394;2023-04-25T05:17:07;5.33;;;3.50;;
18013;SDS011;9132;47.946;10.394;2023-04-25T05:19:33;4.90;;;3.75;;
18013;SDS011;9132;47.946;10.394;2023-04-25T05:22:01;3.73;;;2.90;;
18013;SDS011;9132;47.946;10.394;2023-04-25T05:24:29;6.57;;;3.73;;
18013;SDS011;9132;47.946;10.394;2023-04-25T05:26:55;4.47;;;3.57;;
18013;SDS011;9132;47.946;10.394;2023-04-25T05:29:21;4.43;;;3.10;;
18013;SDS011;9132;47.946;10.394;2023-04-25T05:31:48;4.77;;;3.30;;
18013;SDS011;9132;47.946;10.394;2023-04-25T05:34:14;10.33;;;3.50;;
18013;SDS011;9132;47.946;10.394;2023-04-25T05:36:41;5.10;;;3.43;;
18013;SDS011;9132;47.946;10.394;2023-04-25T05:39:09;5.25;;;3.80;;
18013;SDS011;9132;47.946;10.394;2023-04-25T05:41:36;4.77;;;3.80;;
18013;SDS011;9132;47.946;10.394;2023-04-25T05:44:02;7.97;;;3.93;;
18013;SDS011;9132;47.946;10.394;2023-04-25T05:46:28;7.23;;;3.87;;
18013;SDS011;9132;47.946;10.394;2023-04-25T05:48:55;6.20;;;3.70;;
18013;SDS011;9132;47.946;10.394;2023-04-25T05:51:21;7.43;;;3.83;;
18013;SDS011;9132;47.946;10.394;2023-04-25T05:53:47;4.17;;;3.53;;
18013;SDS011;9132;47.946;10.394;2023-04-25T05:56:15;4.77;;;3.70;;
18013;SDS011;9132;47.946;10.394;2023-04-25T05:58:41;5.73;;;3.63;;
18013;SDS011;9132;47.946;10.394;2023-04-25T06:01:07;5.67;;;4.17;;
18013;SDS011;9132;47.946;10.394;2023-04-25T06:03:34;4.93;;;3.70;;
18013;SDS011;9132;47.946;10.394;2023-04-25T06:06:03;5.27;;;3.33;;
18013;SDS011;9132;47.946;10.394;2023-04-25T06:08:29;7.87;;;3.30;;
18013;SDS011;9132;47.946;10.394;2023-04-25T06:10:55;8.20;;;3.93;;
18013;SDS011;9132;47.946;10.394;2023-04-25T06:13:23;8.23;;;3.53;;
18013;SDS011;9132;47.946;10.394;2023-04-25T06:15:49;5.47;;;4.00;;
18013;SDS011;9132;47.946;10.394;2023-04-25T06:18:16;5.40;;;3.83;;
18013;SDS011;9132;47.946;10.394;2023-04-25T06:20:42;5.97;;;3.80;;
18013;SDS011;9132;47.946;10.394;2023-04-25T06:23:08;4.37;;;3.50;;
18013;SDS011;9132;47.946;10.394;2023-04-25T06:25:34;4.67;;;3.37;;
18013;SDS011;9132;47.946;10.394;2023-04-25T06:28:01;3.60;;;2.80;;
18013;SDS011;9132;47.946;10.394;2023-04-25T06:30:28;4.97;;;3.20;;
18013;SDS011;9132;47.946;10.394;2023-04-25T06:32:55;5.63;;;2.87;;
18013;SDS011;9132;47.946;10.394;2023-04-25T06:35:21;7.60;;;2.90;;
18013;SDS011;9132;47.946;10.394;2023-04-25T06:37:47;3.67;;;2.90;;
18013;SDS011;9132;47.946;10.394;2023-04-25T06:40:14;5.70;;;2.90;;
18013;SDS011;9132;47.946;10.394;2023-04-25T06:42:42;5.93;;;3.07;;
18013;SDS011;9132;47.946;10.394;2023-04-25T06:45:09;5.53;;;2.93;;
18013;SDS011;9132;47.946;10.394;2023-04-25T06:47:36;6.17;;;2.87;;
18013;SDS011;9132;47.946;10.394;2023-04-25T06:50:03;4.50;;;2.70;;
18013;SDS011;9132;47.946;10.394;2023-04-25T06:52:29;3.90;;;2.90;;
18013;SDS011;9132;47.946;10.394;2023-04-25T06:54:56;6.73;;;3.13;;
18013;SDS011;9132;47.946;10.394;2023-04-25T06:57:22;5.13;;;3.03;;
18013;SDS011;9132;47.946;10.394;2023-04-25T06:59:49;5.67;;;2.90;;
18013;SDS011;9132;47.946;10.394;2023-04-25T07:02:15;4.73;;;2.90;;
18013;SDS011;9132;47.946;10.394;2023-04-25T07:04:42;4.17;;;2.40;;
18013;SDS011;9132;47.946;10.394;2023-04-25T07:07:10;6.00;;;2.80;;
18013;SDS011;9132;47.946;10.394;2023-04-25T07:09:36;4.10;;;2.50;;
18013;SDS011;9132;47.946;10.394;2023-04-25T07:12:03;4.40;;;3.03;;
18013;SDS011;9132;47.946;10.394;2023-04-25T07:14:29;4.37;;;2.60;;
18013;SDS011;9132;47.946;10.394;2023-04-25T07:16:55;3.97;;;2.93;;
18013;SDS011;9132;47.946;10.394;2023-04-25T07:19:22;5.03;;;3.17;;
18013;SDS011;9132;47.946;10.394;2023-04-25T07:21:52;4.80;;;2.40;;
18013;SDS011;9132;47.946;10.394;2023-04-25T07:24:19;4.53;;;2.90;;
18013;SDS011;9132;47.946;10.394;2023-04-25T07:26:45;4.37;;;2.83;;
18013;SDS011;9132;47.946;10.394;2023-04-25T07:29:11;6.23;;;2.70;;
18013;SDS011;9132;47.946;10.394;2023-04-25T07:31:38;4.80;;;2.50;;
18013;SDS011;9132;47.946;10.394;2023-04-25T07:34:04;3.10;;;2.50;;
18013;SDS011;9132;47.946;10.394;2023-04-25T07:36:30;5.60;;;2.50;;
18013;SDS011;9132;47.946;10.394;2023-04-25T07:38:58;3.63;;;2.50;;
18013;SDS011;9132;47.946;10.394;2023-04-25T07:41:24;2.30;;;2.10;;
18013;SDS011;9132;47.946;10.394;2023-04-25T07:43:51;3.87;;;1.97;;
18013;SDS011;9132;47.946;10.394;2023-04-25T07:46:17;3.80;;;1.70;;
18013;SDS011;9132;47.946;10.394;2023-04-25T07:48:43;4.27;;;1.80;;
18013;SDS011;9132;47.946;10.394;2023-04-25T07:51:10;3.90;;;2.00;;
18013;SDS011;9132;47.946;10.394;2023-04-25T07:53:36;7.20;;;1.97;;
18013;SDS011;9132;47.946;10.394;2023-04-25T07:56:04;4.70;;;2.00;;
18013;SDS011;9132;47.946;10.394;2023-04-25T07:58:31;1.90;;;1.63;;
18013;SDS011;9132;47.946;10.394;2023-04-25T08:00:57;3.17;;;1.80;;
18013;SDS011;9132;47.946;10.394;2023-04-25T08:03:23;1.80;;;1.70;;
18013;SDS011;9132;47.946;10.394;2023-04-25T08:05:50;3.70;;;2.50;;
18013;SDS011;9132;47.946;10.394;2023-04-25T08:08:16;6.17;;;2.60;;
18013;SDS011;9132;47.946;10.394;2023-04-25T08:10:42;4.63;;;2.23;;
18013;SDS011;9132;47.946;10.394;2023-04-25T08:13:10;4.60;;;2.00;;
18013;SDS011;9132;47.946;10.394;2023-04-25T08:15:36;2.50;;;1.90;;
18013;SDS011;9132;47.946;10.394;2023-04-25T08:18:03;3.00;;;2.00;;
18013;SDS011;9132;47.946;10.394;2023-04-25T08:20:29;3.63;;;1.70;;
18013;SDS011;9132;47.946;10.394;2023-04-25T08:22:55;4.17;;;1.80;;
18013;SDS011;9132;47.946;10.394;2023-04-25T08:25:21;3.30;;;1.80;;
18013;SDS011;9132;47.946;10.394;2023-04-25T08:27:48;2.40;;;1.90;;
18013;SDS011;9132;47.946;10.394;2023-04-25T08:30:15;4.20;;;2.20;;
18013;SDS011;9132;47.946;10.394;2023-04-25T08:32:42;2.40;;;2.00;;
18013;SDS011;9132;47.946;10.394;2023-04-25T08:35:08;2.30;;;1.83;;
18013;SDS011;9132;47.946;10.394;2023-04-25T08:37:35;4.43;;;1.83;;
18013;SDS011;9132;47.946;10.394;2023-04-25T08:40:02;4.57;;;2.60;;
18013;SDS011;9132;47.946;10.394;2023-04-25T08:42:32;4.13;;;2.93;;
18013;SDS011;9132;47.946;10.394;2023-04-25T08:44:59;4.73;;;2.30;;
18013;SDS011;9132;47.946;10.394;2023-04-25T08:47:28;2.80;;;2.20;;
18013;SDS011;9132;47.946;10.394;2023-04-25T08:49:55;4.07;;;2.20;;
18013;SDS011;9132;47.946;10.394;2023-04-25T08:52:22;2.00;;;1.60;;
18013;SDS011;9132;47.946;10.394;2023-04-25T08:54:49;2.73;;;1.53;;
18013;SDS011;9132;47.946;10.394;2023-04-25T08:57:17;3.03;;;1.87;;
18013;SDS011;9132;47.946;10.394;2023-04-25T08:59:44;4.73;;;1.97;;
18013;SDS011;9132;47.946;10.394;2023-04-25T09:02:11;6.37;;;1.87;;
18013;SDS011;9132;47.946;10.394;2023-04-25T09:04:40;2.03;;;1.57;;
18013;SDS011;9132;47.946;10.394;2023-04-25T09:07:07;2.87;;;1.40;;
18013;SDS011;9132;47.946;10.394;2023-04-25T09:09:33;5.60;;;1.80;;
18013;SDS011;9132;47.946;10.394;2023-04-25T09:12:00;4.70;;;2.80;;
18013;SDS011;9132;47.946;10.394;2023-04-25T09:14:26;2.60;;;2.00;;
18013;SDS011;9132;47.946;10.394;2023-04-25T09:17:00;4.67;;;3.27;;
18013;SDS011;9132;47.946;10.394;2023-04-25T09:19:28;5.87;;;2.10;;
18013;SDS011;9132;47.946;10.394;2023-04-25T09:21:56;4.07;;;2.20;;
18013;SDS011;9132;47.946;10.394;2023-04-25T09:24:29;3.00;;;2.50;;
18013;SDS011;9132;47.946;10.394;2023-04-25T09:26:56;5.00;;;2.63;;
18013;SDS011;9132;47.946;10.394;2023-04-25T09:29:28;5.63;;;2.60;;
18013;SDS011;9132;47.946;10.394;2023-04-25T09:31:57;5.57;;;2.43;;
18013;SDS011;9132;47.946;10.394;2023-04-25T09:34:38;5.13;;;2.50;;
18013;SDS011;9132;47.946;10.394;2023-04-25T09:37:06;3.47;;;2.10;;
18013;SDS011;9132;47.946;10.394;2023-04-25T09:39:32;3.50;;;2.23;;
18013;SDS011;9132;47.946;10.394;2023-04-25T09:41:59;4.17;;;2.27;;
18013;SDS011;9132;47.946;10.394;2023-04-25T09:44:26;2.63;;;1.80;;
18013;SDS011;9132;47.946;10.394;2023-04-25T09:46:53;2.03;;;1.47;;
18013;SDS011;9132;47.946;10.394;2023-04-25T09:49:19;1.30;;;1.20;;
18013;SDS011;9132;47.946;10.394;2023-04-25T09:51:53;4.63;;;1.77;;
18013;SDS011;9132;47.946;10.394;2023-04-25T09:54:21;2.40;;;1.80;;
18013;SDS011;9132;47.946;10.394;2023-04-25T09:56:47;2.20;;;1.70;;
18013;SDS011;9132;47.946;10.394;2023-04-25T09:59:14;2.13;;;1.83;;
18013;SDS011;9132;47.946;10.394;2023-04-25T10:01:41;2.65;;;1.92;;
18013;SDS011;9132;47.946;10.394;2023-04-25T10:04:09;4.13;;;3.72;;
18013;SDS011;9132;47.946;10.394;2023-04-25T10:06:36;3.30;;;2.97;;
18013;SDS011;9132;47.946;10.394;2023-04-25T10:09:03;2.50;;;2.30;;
18013;SDS011;9132;47.946;10.394;2023-04-25T10:11:34;2.17;;;1.70;;
18013;SDS011;9132;47.946;10.394;2023-04-25T10:14:01;3.00;;;2.70;;
18013;SDS011;9132;47.946;10.394;2023-04-25T10:16:27;3.43;;;2.17;;
18013;SDS011;9132;47.946;10.394;2023-04-25T10:18:54;3.23;;;2.50;;
18013;SDS011;9132;47.946;10.394;2023-04-25T10:21:20;3.03;;;2.80;;
18013;SDS011;9132;47.946;10.394;2023-04-25T10:23:47;2.20;;;2.00;;
18013;SDS011;9132;47.946;10.394;2023-04-25T10:26:15;2.60;;;1.90;;
18013;SDS011;9132;47.946;10.394;2023-04-25T10:28:59;1.90;;;1.30;;
18013;SDS011;9132;47.946;10.394;2023-04-25T10:31:26;2.50;;;1.50;;
18013;SDS011;9132;47.946;10.394;2023-04-25T10:33:52;1.07;;;1.00;;
18013;SDS011;9132;47.946;10.394;2023-04-25T10:36:19;1.10;;;1.00;;
18013;SDS011;9132;47.946;10.394;2023-04-25T10:38:47;1.17;;;1.07;;
18013;SDS011;9132;47.946;10.394;2023-04-25T10:41:15;1.60;;;1.10;;
18013;SDS011;9132;47.946;10.394;2023-04-25T10:43:43;1.33;;;1.03;;
18013;SDS011;9132;47.946;10.394;2023-04-25T10:46:16;1.13;;;1.03;;
18013;SDS011;9132;47.946;10.394;2023-04-25T10:48:46;1.43;;;0.90;;
18013;SDS011;9132;47.946;10.394;2023-04-25T10:51:16;1.90;;;1.10;;
18013;SDS011;9132;47.946;10.394;2023-04-25T10:53:43;1.63;;;1.00;;
18013;SDS011;9132;47.946;10.394;2023-04-25T10:56:10;1.43;;;1.00;;
18013;SDS011;9132;47.946;10.394;2023-04-25T10:58:41;1.40;;;1.00;;
18013;SDS011;9132;47.946;10.394;2023-04-25T11:01:07;1.17;;;0.83;;
18013;SDS011;9132;47.946;10.394;2023-04-25T11:03:39;0.97;;;0.87;;
18013;SDS011;9132;47.946;10.394;2023-04-25T11:06:06;0.90;;;0.80;;
18013;SDS011;9132;47.946;10.394;2023-04-25T11:08:37;1.17;;;0.83;;
18013;SDS011;9132;47.946;10.394;2023-04-25T11:11:09;1.70;;;0.80;;
18013;SDS011;9132;47.946;10.394;2023-04-25T11:13:35;1.17;;;0.70;;
18013;SDS011;9132;47.946;10.394;2023-04-25T11:16:02;1.03;;;0.73;;
18013;SDS011;9132;47.946;10.394;2023-04-25T11:18:28;0.87;;;0.60;;
18013;SDS011;9132;47.946;10.394;2023-04-25T11:20:56;1.10;;;0.90;;
18013;SDS011;9132;47.946;10.394;2023-04-25T11:23:22;3.53;;;1.33;;
18013;SDS011;9132;47.946;10.394;2023-04-25T11:25:49;0.50;;;0.50;;
18013;SDS011;9132;47.946;10.394;2023-04-25T11:28:20;0.57;;;0.57;;
18013;SDS011;9132;47.946;10.394;2023-04-25T11:30:47;0.80;;;0.80;;
18013;SDS011;9132;47.946;10.394;2023-04-25T11:33:14;0.60;;;0.60;;
18013;SDS011;9132;47.946;10.394;2023-04-25T11:35:40;0.70;;;0.70;;
18013;SDS011;9132;47.946;10.394;2023-04-25T11:38:08;0.60;;;0.60;;
18013;SDS011;9132;47.946;10.394;2023-04-25T11:40:35;0.97;;;0.67;;
18013;SDS011;9132;47.946;10.394;2023-04-25T11:43:01;1.00;;;0.83;;
18013;SDS011;9132;47.946;10.394;2023-04-25T11:45:27;0.83;;;0.83;;
18013;SDS011;9132;47.946;10.394;2023-04-25T11:47:54;0.73;;;0.73;;
18013;SDS011;9132;47.946;10.394;2023-04-25T11:50:21;0.40;;;0.40;;
18013;SDS011;9132;47.946;10.394;2023-04-25T11:52:47;0.90;;;0.60;;
18013;SDS011;9132;47.946;10.394;2023-04-25T11:55:16;0.73;;;0.50;;
18013;SDS011;9132;47.946;10.394;2023-04-25T11:57:43;0.63;;;0.63;;
18013;SDS011;9132;47.946;10.394;2023-04-25T12:00:10;1.47;;;0.70;;
18013;SDS011;9132;47.946;10.394;2023-04-25T12:02:40;1.23;;;0.90;;
18013;SDS011;9132;47.946;10.394;2023-04-25T12:05:06;1.27;;;0.80;;
18013;SDS011;9132;47.946;10.394;2023-04-25T12:07:34;0.80;;;0.80;;
18013;SDS011;9132;47.946;10.394;2023-04-25T12:10:03;0.60;;;0.60;;
18013;SDS011;9132;47.946;10.394;2023-04-25T12:12:33;0.53;;;0.53;;
18013;SDS011;9132;47.946;10.394;2023-04-25T12:15:08;0.43;;;0.43;;
18013;SDS011;9132;47.946;10.394;2023-04-25T12:17:34;0.47;;;0.47;;
18013;SDS011;9132;47.946;10.394;2023-04-25T12:20:05;0.70;;;0.60;;
18013;SDS011;9132;47.946;10.394;2023-04-25T12:22:32;0.60;;;0.60;;
18013;SDS011;9132;47.946;10.394;2023-04-25T12:24:58;0.80;;;0.80;;
18013;SDS011;9132;47.946;10.394;2023-04-25T12:27:26;0.70;;;0.70;;
18013;SDS011;9132;47.946;10.394;2023-04-25T12:29:54;1.47;;;1.17;;
18013;SDS011;9132;47.946;10.394;2023-04-25T12:32:21;2.37;;;1.20;;
18013;SDS011;9132;47.946;10.394;2023-04-25T12:34:47;1.80;;;1.30;;
18013;SDS011;9132;47.946;10.394;2023-04-25T12:37:13;2.10;;;1.83;;
18013;SDS011;9132;47.946;10.394;2023-04-25T12:39:40;2.20;;;1.47;;
18013;SDS011;9132;47.946;10.394;2023-04-25T12:42:07;2.00;;;1.40;;
18013;SDS011;9132;47.946;10.394;2023-04-25T12:44:36;3.43;;;1.73;;
18013;SDS011;9132;47.946;10.394;2023-04-25T12:47:04;2.00;;;1.60;;
18013;SDS011;9132;47.946;10.394;2023-04-25T12:49:30;1.10;;;1.00;;
18013;SDS011;9132;47.946;10.394;2023-04-25T12:51:56;1.50;;;1.20;;
18013;SDS011;9132;47.946;10.394;2023-04-25T12:54:23;2.50;;;1.50;;
18013;SDS011;9132;47.946;10.394;2023-04-25T12:56:49;1.53;;;1.27;;
18013;SDS011;9132;47.946;10.394;2023-04-25T12:59:16;1.60;;;1.40;;
18013;SDS011;9132;47.946;10.394;2023-04-25T13:01:43;3.40;;;1.30;;
18013;SDS011;9132;47.946;10.394;2023-04-25T13:04:11;2.53;;;2.03;;
18013;SDS011;9132;47.946;10.394;2023-04-25T13:06:38;2.57;;;2.27;;
18013;SDS011;9132;47.946;10.394;2023-04-25T13:09:04;2.07;;;1.87;;
18013;SDS011;9132;47.946;10.394;2023-04-25T13:11:31;1.57;;;1.40;;
18013;SDS011;9132;47.946;10.394;2023-04-25T13:13:57;3.67;;;1.90;;
18013;SDS011;9132;47.946;10.394;2023-04-25T13:16:24;1.83;;;1.40;;
18013;SDS011;9132;47.946;10.394;2023-04-25T13:18:51;2.40;;;1.80;;
18013;SDS011;9132;47.946;10.394;2023-04-25T13:21:19;1.70;;;1.40;;
18013;SDS011;9132;47.946;10.394;2023-04-25T13:23:45;1.53;;;1.40;;
18013;SDS011;9132;47.946;10.394;2023-04-25T13:26:12;2.57;;;1.40;;
18013;SDS011;9132;47.946;10.394;2023-04-25T13:28:38;1.57;;;1.30;;
18013;SDS011;9132;47.946;10.394;2023-04-25T13:31:05;1.57;;;1.47;;
18013;SDS011;9132;47.946;10.394;2023-04-25T13:33:31;1.50;;;1.40;;
18013;SDS011;9132;47.946;10.394;2023-04-25T13:35:58;1.20;;;1.10;;
18013;SDS011;9132;47.946;10.394;2023-04-25T13:38:25;1.40;;;1.30;;
18013;SDS011;9132;47.946;10.394;2023-04-25T13:40:52;1.73;;;1.23;;
18013;SDS011;9132;47.946;10.394;2023-04-25T13:43:18;1.33;;;1.23;;
18013;SDS011;9132;47.946;10.394;2023-04-25T13:45:45;1.50;;;1.40;;
18013;SDS011;9132;47.946;10.394;2023-04-25T13:48:12;0.93;;;0.83;;
18013;SDS011;9132;47.946;10.394;2023-04-25T13:50:38;1.20;;;1.10;;
18013;SDS011;9132;47.946;10.394;2023-04-25T13:53:04;1.00;;;0.90;;
18013;SDS011;9132;47.946;10.394;2023-04-25T13:55:33;0.60;;;0.60;;
18013;SDS011;9132;47.946;10.394;2023-04-25T13:58:00;0.77;;;0.77;;
18013;SDS011;9132;47.946;10.394;2023-04-25T14:00:32;1.00;;;0.87;;
18013;SDS011;9132;47.946;10.394;2023-04-25T14:02:58;0.70;;;0.70;;
18013;SDS011;9132;47.946;10.394;2023-04-25T14:05:24;0.70;;;0.70;;
18013;SDS011;9132;47.946;10.394;2023-04-25T14:07:51;1.13;;;1.03;;
18013;SDS011;9132;47.946;10.394;2023-04-25T14:10:17;1.00;;;0.90;;
18013;SDS011;9132;47.946;10.394;2023-04-25T14:12:44;1.20;;;1.10;;
18013;SDS011;9132;47.946;10.394;2023-04-25T14:15:11;0.60;;;0.60;;
18013;SDS011;9132;47.946;10.394;2023-04-25T14:17:37;2.73;;;2.03;;
18013;SDS011;9132;47.946;10.394;2023-04-25T14:20:04;1.43;;;1.07;;
18013;SDS011;9132;47.946;10.394;2023-04-25T14:22:32;0.90;;;0.90;;
18013;SDS011;9132;47.946;10.394;2023-04-25T14:24:59;0.80;;;0.80;;
18013;SDS011;9132;47.946;10.394;2023-04-25T14:27:25;1.33;;;0.80;;
18013;SDS011;9132;47.946;10.394;2023-04-25T14:29:54;1.07;;;0.80;;
18013;SDS011;9132;47.946;10.394;2023-04-25T14:32:20;0.97;;;0.90;;
18013;SDS011;9132;47.946;10.394;2023-04-25T14:34:46;1.53;;;0.67;;
18013;SDS011;9132;47.946;10.394;2023-04-25T14:37:13;1.20;;;1.10;;
18013;SDS011;9132;47.946;10.394;2023-04-25T14:39:39;0.30;;;0.30;;
18013;SDS011;9132;47.946;10.394;2023-04-25T14:42:05;1.57;;;1.30;;
18013;SDS011;9132;47.946;10.394;2023-04-25T14:44:32;2.25;;;2.05;;
18013;SDS011;9132;47.946;10.394;2023-04-25T14:47:00;2.10;;;0.73;;